Lewis B Strait — WDJ7777 — position and weather

sailwx.info

Track history (hours):
 
Tides and Currents Weather Stations Pressure Air Temp Water Temp Dewpoint Dewpoint Depression Visibility Wind Speed Wind Dir Waves Ship Positions

Lewis B Strait

Owner: Western Rivers Boat Mgt., Paducah, KY. More information available from US FCC via Universal Licensing System and Coast Guard Vessel Documentation Center.

Last reported at 2018-Feb-20 13:28 UTC. Time now 2018-Feb-22 22:59 UTC.
Position N 32°40' W 091°07'.

Length 54 m; draft 2.9 m.

Type: Tow > 200 m length. MMSI: 368010020.

Date/timePositionNaut miles runAvg speedWind from/ knotsBaromVisibWave heightAir tempDewpointWater temp
2018-Feb-20 13:28N 32°40' W 091°07'3 3.7
2018-Feb-20 12:36N 32°37' W 091°09'0 4.7
2018-Feb-20 12:30N 32°37' W 091°09'2 4.0
2018-Feb-20 12:00N 32°35' W 091°07'2 4.0
2018-Feb-20 11:30N 32°34' W 091°06'2 3.3
2018-Feb-20 11:00N 32°32' W 091°06'2 4.0
2018-Feb-20 10:30N 32°30' W 091°07'2 3.3
2018-Feb-20 10:01N 32°28' W 091°06'2 4.2
2018-Feb-20 09:30N 32°27' W 091°05'2 3.8
2018-Feb-20 09:00N 32°26' W 091°03'2 3.9
2018-Feb-20 08:30N 32°26' W 091°00'2 3.5
2018-Feb-20 08:00N 32°24' W 090°60'2 4.1
2018-Feb-20 07:30N 32°22' W 091°00'2 3.6
2018-Feb-20 07:00N 32°21' W 090°59'2 4.0
2018-Feb-20 06:29N 32°21' W 090°56'2 3.6
2018-Feb-20 06:00N 32°20' W 090°54'1 2.6
2018-Feb-20 05:30N 32°19' W 090°54'1 1.7
2018-Feb-20 04:59N 32°18' W 090°55'0 0.0
2018-Feb-20 04:30N 32°18' W 090°55'0 0.0
2018-Feb-20 04:00N 32°18' W 090°55'0 0.0
2018-Feb-20 03:30N 32°18' W 090°55'0 0.0
2018-Feb-20 03:00N 32°18' W 090°55'2 3.0
2018-Feb-20 02:30N 32°17' W 090°57'2 3.5
2018-Feb-20 02:00N 32°16' W 090°58'2 3.4
2018-Feb-20 01:30N 32°14' W 090°59'2 3.5
2018-Feb-20 01:00N 32°12' W 090°59'2 4.0
2018-Feb-20 00:29N 32°10' W 090°60'2 3.7
2018-Feb-19 23:59N 32°09' W 091°00'2 3.4
2018-Feb-19 23:21N 32°07' W 091°02'3 3.7
2018-Feb-19 22:34N 32°08' W 091°05'0 3.3
2018-Feb-19 22:26N 32°08' W 091°06'  
2018-Feb-15 11:52N 31°53' W 091°14'11 1.4
2018-Feb-15 04:04N 32°00' W 091°05'2 8.5
2018-Feb-15 03:47N 32°03' W 091°03'3 7.2
2018-Feb-15 03:21N 32°05' W 091°05'2 6.4
2018-Feb-15 02:59N 32°07' W 091°07'2 4.4
2018-Feb-15 02:30N 32°08' W 091°04'3 6.8
2018-Feb-15 02:00N 32°09' W 091°00'4 8.3
2018-Feb-15 01:30N 32°13' W 090°59'4 7.8
2018-Feb-15 01:00N 32°16' W 090°57'3 6.9
2018-Feb-15 00:30N 32°19' W 090°54'3 5.2
2018-Feb-15 00:00N 32°21' W 090°56'3 6.9
2018-Feb-14 23:30N 32°21' W 091°00'4 7.4
2018-Feb-14 23:00N 32°25' W 091°00'4 7.6
2018-Feb-14 22:30N 32°27' W 091°04'5 6.7
2018-Feb-14 21:42N 32°32' W 091°06'2 7.6
2018-Feb-14 21:24N 32°34' W 091°06'  
Track history (hours):
 
Tides and Currents Weather Stations Pressure Air Temp Water Temp Dewpoint Dewpoint Depression Visibility Wind Speed Wind Dir Waves Ship Positions

Lewis B Strait

Owner: Western Rivers Boat Mgt., Paducah, KY. More information available from US FCC via Universal Licensing System and Coast Guard Vessel Documentation Center.

Last reported at 2018-Feb-20 13:28 UTC. Time now 2018-Feb-22 22:59 UTC.
Position N 32°40' W 091°07'.

Length 54 m; draft 2.9 m.

Type: Tow > 200 m length. MMSI: 368010020.

Date/timePositionNaut miles runAvg speedWind from/ knotsBaromVisibWave heightAir tempDewpointWater temp
2018-Feb-20 13:28N 32°40' W 091°07'3 3.7
2018-Feb-20 12:36N 32°37' W 091°09'0 4.7
2018-Feb-20 12:30N 32°37' W 091°09'2 4.0
2018-Feb-20 12:00N 32°35' W 091°07'2 4.0
2018-Feb-20 11:30N 32°34' W 091°06'2 3.3
2018-Feb-20 11:00N 32°32' W 091°06'2 4.0
2018-Feb-20 10:30N 32°30' W 091°07'2 3.3
2018-Feb-20 10:01N 32°28' W 091°06'2 4.2
2018-Feb-20 09:30N 32°27' W 091°05'2 3.8
2018-Feb-20 09:00N 32°26' W 091°03'2 3.9
2018-Feb-20 08:30N 32°26' W 091°00'2 3.5
2018-Feb-20 08:00N 32°24' W 090°60'2 4.1
2018-Feb-20 07:30N 32°22' W 091°00'2 3.6
2018-Feb-20 07:00N 32°21' W 090°59'2 4.0
2018-Feb-20 06:29N 32°21' W 090°56'2 3.6
2018-Feb-20 06:00N 32°20' W 090°54'1 2.6
2018-Feb-20 05:30N 32°19' W 090°54'1 1.7
2018-Feb-20 04:59N 32°18' W 090°55'0 0.0
2018-Feb-20 04:30N 32°18' W 090°55'0 0.0
2018-Feb-20 04:00N 32°18' W 090°55'0 0.0
2018-Feb-20 03:30N 32°18' W 090°55'0 0.0
2018-Feb-20 03:00N 32°18' W 090°55'2 3.0
2018-Feb-20 02:30N 32°17' W 090°57'2 3.5
2018-Feb-20 02:00N 32°16' W 090°58'2 3.4
2018-Feb-20 01:30N 32°14' W 090°59'2 3.5
2018-Feb-20 01:00N 32°12' W 090°59'2 4.0
2018-Feb-20 00:29N 32°10' W 090°60'2 3.7
2018-Feb-19 23:59N 32°09' W 091°00'2 3.4
2018-Feb-19 23:21N 32°07' W 091°02'3 3.7
2018-Feb-19 22:34N 32°08' W 091°05'0 3.3
2018-Feb-19 22:26N 32°08' W 091°06'  
2018-Feb-15 11:52N 31°53' W 091°14'11 1.4
2018-Feb-15 04:04N 32°00' W 091°05'2 8.5
2018-Feb-15 03:47N 32°03' W 091°03'3 7.2
2018-Feb-15 03:21N 32°05' W 091°05'2 6.4
2018-Feb-15 02:59N 32°07' W 091°07'2 4.4
2018-Feb-15 02:30N 32°08' W 091°04'3 6.8
2018-Feb-15 02:00N 32°09' W 091°00'4 8.3
2018-Feb-15 01:30N 32°13' W 090°59'4 7.8
2018-Feb-15 01:00N 32°16' W 090°57'3 6.9
2018-Feb-15 00:30N 32°19' W 090°54'3 5.2
2018-Feb-15 00:00N 32°21' W 090°56'3 6.9
2018-Feb-14 23:30N 32°21' W 091°00'4 7.4
2018-Feb-14 23:00N 32°25' W 091°00'4 7.6
2018-Feb-14 22:30N 32°27' W 091°04'5 6.7
2018-Feb-14 21:42N 32°32' W 091°06'2 7.6
2018-Feb-14 21:24N 32°34' W 091°06'  

Dump ship's entire track history